Time;durP1;ratioP1;P1;durP2;ratioP2;P2;SDS_P1;SDS_P2;PMS_P1;PMS_P2;Temp;Humidity;BMP_temperature;BMP_pressure;BME280_temperature;BME280_humidity;BME280_pressure;Samples;Min_cycle;Max_cycle;Signal;HPM_P1;HPM_P2
2023/10/01 00:02:09;;;;;;;14.83;7.47;;;14.70;99.90;;;;;;5083007;28;20760;-78
2023/10/01 00:04:35;;;;;;;17.57;8.60;;;14.60;99.90;;;;;;5077006;28;20180;-77
2023/10/01 00:07:01;;;;;;;13.20;7.47;;;14.60;99.90;;;;;;5073548;28;20262;-77
2023/10/01 00:09:28;;;;;;;15.60;8.43;;;14.60;99.90;;;;;;5073310;28;20179;-78
2023/10/01 00:11:54;;;;;;;14.73;7.93;;;14.60;99.90;;;;;;5076248;28;20182;-76
2023/10/01 00:14:21;;;;;;;17.50;7.73;;;14.60;99.90;;;;;;5075895;28;20175;-78
2023/10/01 00:16:47;;;;;;;13.77;7.83;;;14.60;99.90;;;;;;5088910;28;20205;-78
2023/10/01 00:19:13;;;;;;;15.37;7.70;;;14.50;99.90;;;;;;5073459;28;20167;-76
2023/10/01 00:21:39;;;;;;;15.27;7.70;;;14.50;99.90;;;;;;5073549;28;20179;-77
2023/10/01 00:24:05;;;;;;;15.30;7.97;;;14.50;99.90;;;;;;5080540;28;20167;-76
2023/10/01 00:26:31;;;;;;;15.60;7.27;;;14.50;99.90;;;;;;5075226;28;20175;-77
2023/10/01 00:28:58;;;;;;;13.53;7.33;;;14.40;99.90;;;;;;5090552;28;20169;-77
2023/10/01 00:31:24;;;;;;;20.30;8.30;;;14.30;99.90;;;;;;5073533;28;20171;-77
2023/10/01 00:33:49;;;;;;;16.70;7.77;;;14.30;99.90;;;;;;5073141;28;20518;-77
2023/10/01 00:36:17;;;;;;;15.60;8.40;;;14.30;99.90;;;;;;5072810;28;20205;-78
2023/10/01 00:38:43;;;;;;;14.97;7.63;;;14.30;99.90;;;;;;5073117;28;20258;-78
2023/10/01 00:41:09;;;;;;;14.10;7.67;;;14.20;99.90;;;;;;5072694;28;20282;-78
2023/10/01 00:43:35;;;;;;;18.57;7.83;;;14.20;99.90;;;;;;5072856;28;20573;-76
2023/10/01 00:46:01;;;;;;;14.90;8.00;;;14.20;99.90;;;;;;5072495;28;20175;-78
2023/10/01 00:48:28;;;;;;;15.17;7.53;;;14.20;99.90;;;;;;5073152;28;20186;-78
2023/10/01 00:50:54;;;;;;;17.17;7.77;;;14.10;99.90;;;;;;5038836;28;20175;-78
2023/10/01 00:53:21;;;;;;;13.40;7.23;;;14.10;99.90;;;;;;5062407;28;20184;-77
2023/10/01 00:55:48;;;;;;;14.60;7.80;;;14.10;99.90;;;;;;5066856;28;20340;-76
2023/10/01 00:58:15;;;;;;;15.03;7.23;;;14.00;99.90;;;;;;5072867;28;20176;-79
2023/10/01 01:00:43;;;;;;;15.60;7.63;;;14.00;99.90;;;;;;5072430;28;20268;-75
2023/10/01 01:03:09;;;;;;;15.90;8.20;;;14.10;99.90;;;;;;5072696;28;20223;-76
2023/10/01 01:05:37;;;;;;;13.13;7.30;;;14.00;99.90;;;;;;5072907;28;20634;-77
2023/10/01 01:08:22;;;;;;;11.90;7.60;;;14.00;99.90;;;;;;5072475;28;20170;-78
2023/10/01 01:10:51;;;;;;;14.80;7.63;;;14.00;99.90;;;;;;5072847;28;20151;-77
2023/10/01 01:13:17;;;;;;;17.77;8.03;;;14.00;99.90;;;;;;5072155;28;20658;-77
2023/10/01 01:15:46;;;;;;;13.23;7.00;;;14.00;99.90;;;;;;5073171;28;20218;-76
2023/10/01 01:18:20;;;;;;;17.03;8.40;;;14.00;99.90;;;;;;5076576;28;20593;-77
2023/10/01 01:20:46;;;;;;;17.27;7.80;;;14.00;99.90;;;;;;5075972;28;20163;-77
2023/10/01 01:23:23;;;;;;;15.97;7.90;;;14.00;99.90;;;;;;5079314;28;20178;-77
2023/10/01 01:25:52;;;;;;;16.27;7.47;;;14.00;99.90;;;;;;5090273;28;20151;-76
2023/10/01 01:28:27;;;;;;;15.13;7.93;;;13.90;99.90;;;;;;5077258;28;20179;-77
2023/10/01 01:30:53;;;;;;;12.63;7.33;;;13.90;99.90;;;;;;5076244;28;20162;-78
2023/10/01 01:33:26;;;;;;;16.60;8.03;;;13.90;99.90;;;;;;5076271;28;20183;-76
2023/10/01 01:35:54;;;;;;;13.33;7.80;;;13.90;99.90;;;;;;5076560;28;20209;-77
2023/10/01 01:38:23;;;;;;;16.13;7.70;;;13.90;99.90;;;;;;5076881;28;20167;-77
2023/10/01 01:40:51;;;;;;;16.90;7.50;;;13.90;99.90;;;;;;5098691;28;20190;-77
2023/10/01 01:43:30;;;;;;;18.20;8.40;;;13.90;99.90;;;;;;5071203;28;20193;-76
2023/10/01 01:46:00;;;;;;;14.50;7.63;;;13.90;99.90;;;;;;5077230;28;20393;-76
2023/10/01 01:48:30;;;;;;;15.83;7.57;;;13.90;99.90;;;;;;5076171;28;20988;-76
2023/10/01 01:51:04;;;;;;;13.33;6.97;;;13.80;99.90;;;;;;5075813;28;20158;-76
2023/10/01 01:53:41;;;;;;;12.53;7.50;;;13.90;99.90;;;;;;5078775;28;20174;-77
2023/10/01 01:56:10;;;;;;;13.33;7.77;;;13.90;99.90;;;;;;5088777;28;20224;-77
2023/10/01 01:58:37;;;;;;;15.27;7.87;;;13.90;99.90;;;;;;5085003;28;20594;-76
2023/10/01 02:01:17;;;;;;;13.80;7.43;;;13.80;99.90;;;;;;5080577;28;20187;-76
2023/10/01 02:03:46;;;;;;;14.27;7.57;;;13.80;99.90;;;;;;5075708;28;20687;-76
2023/10/01 02:06:13;;;;;;;15.07;7.63;;;13.80;99.90;;;;;;5085835;28;20249;-77
2023/10/01 02:11:38;;;;;;;10.47;6.50;;;13.80;99.90;;;;;;5065433;28;20179;-77
2023/10/01 02:14:05;;;;;;;16.00;7.90;;;13.80;99.90;;;;;;5077372;28;20171;-76
2023/10/01 02:19:21;;;;;;;15.70;8.20;;;13.60;99.90;;;;;;5076233;28;20530;-77
2023/10/01 02:22:05;;;;;;;16.00;8.07;;;13.60;99.90;;;;;;5074927;28;20227;-76
2023/10/01 02:24:45;;;;;;;13.43;7.40;;;13.70;99.90;;;;;;5075079;28;20163;-76
2023/10/01 02:27:15;;;;;;;14.97;7.73;;;13.70;99.90;;;;;;5075230;28;20155;-77
2023/10/01 02:32:28;;;;;;;14.77;7.43;;;13.70;99.90;;;;;;5074663;28;20190;-77
2023/10/01 02:34:56;;;;;;;13.07;7.33;;;13.70;99.90;;;;;;5075042;28;20171;-77
2023/10/01 02:37:29;;;;;;;13.70;7.87;;;13.70;99.90;;;;;;5074643;28;20612;-76
2023/10/01 02:40:00;;;;;;;15.40;7.83;;;13.70;99.90;;;;;;5075207;28;20155;-76
2023/10/01 02:42:30;;;;;;;14.97;7.37;;;13.60;99.90;;;;;;5075371;28;20167;-76
2023/10/01 02:44:55;;;;;;;16.53;7.83;;;13.50;99.90;;;;;;5078306;28;20171;-77
2023/10/01 02:47:23;;;;;;;13.03;7.10;;;13.50;99.90;;;;;;5075758;28;20171;-76
2023/10/01 02:49:58;;;;;;;13.63;7.60;;;13.50;99.90;;;;;;5074501;28;20187;-78
2023/10/01 02:52:32;;;;;;;14.53;7.87;;;13.50;99.90;;;;;;5056592;28;20189;-77
2023/10/01 02:55:00;;;;;;;13.63;7.10;;;13.40;99.90;;;;;;5087227;28;20173;-78
2023/10/01 02:57:26;;;;;;;14.87;7.60;;;13.40;99.90;;;;;;5095847;28;20193;-78
2023/10/01 03:02:58;;;;;;;13.70;7.10;;;13.40;99.90;;;;;;5012067;28;20690;-77
2023/10/01 03:07:52;;;;;;;14.50;7.00;;;13.40;99.90;;;;;;5012634;28;20173;-77
2023/10/01 03:10:31;;;;;;;13.03;6.90;;;13.40;99.90;;;;;;5011748;28;20268;-77
2023/10/01 03:12:59;;;;;;;12.83;7.47;;;13.30;99.90;;;;;;5012137;28;20161;-77
2023/10/01 03:15:28;;;;;;;13.73;8.07;;;13.30;99.90;;;;;;5012113;28;20234;-76
2023/10/01 03:17:56;;;;;;;15.60;7.23;;;13.10;99.90;;;;;;5011767;28;20193;-77
2023/10/01 03:23:12;;;;;;;12.43;7.00;;;12.90;99.90;;;;;;5011650;28;20157;-78
2023/10/01 03:25:56;;;;;;;14.57;7.10;;;12.90;99.90;;;;;;5012242;28;20169;-76
2023/10/01 03:28:26;;;;;;;12.53;7.57;;;12.90;99.90;;;;;;5012211;28;20507;-76
2023/10/01 03:31:09;;;;;;;15.40;7.27;;;13.00;99.90;;;;;;5023402;28;20245;-80
2023/10/01 03:33:39;;;;;;;14.17;7.37;;;12.90;99.90;;;;;;5035637;28;20172;-78
2023/10/01 03:36:10;;;;;;;14.90;7.90;;;12.80;99.90;;;;;;5029258;28;20299;-78
2023/10/01 03:38:47;;;;;;;14.20;7.60;;;12.90;99.90;;;;;;5073558;28;20198;-77
2023/10/01 03:41:22;;;;;;;12.23;6.87;;;13.00;99.90;;;;;;5074104;28;20610;-76
2023/10/01 03:43:55;;;;;;;15.33;7.87;;;13.00;99.90;;;;;;5066821;28;20229;-77
2023/10/01 03:48:58;;;;;;;16.80;7.27;;;13.00;99.90;;;;;;5053682;28;20277;-78
2023/10/01 03:54:20;;;;;;;14.70;7.60;;;13.10;99.90;;;;;;5053652;28;20361;-78
2023/10/01 03:56:58;;;;;;;17.23;8.63;;;13.10;99.90;;;;;;5035147;28;20227;-75
2023/10/01 03:59:32;;;;;;;12.57;7.17;;;13.10;99.90;;;;;;5053036;28;20156;-78
2023/10/01 04:01:58;;;;;;;19.67;7.90;;;13.00;99.90;;;;;;5052757;28;20274;-77
2023/10/01 04:04:56;;;;;;;13.13;7.90;;;13.00;99.90;;;;;;5055269;28;20176;-77
2023/10/01 04:07:22;;;;;;;13.10;7.30;;;13.10;99.90;;;;;;5058891;28;20183;-77
2023/10/01 04:09:50;;;;;;;15.97;7.43;;;13.10;99.90;;;;;;5057543;28;20168;-76
2023/10/01 04:12:20;;;;;;;13.67;7.80;;;13.00;99.90;;;;;;5037647;28;20187;-77
2023/10/01 04:14:52;;;;;;;13.63;7.20;;;13.00;99.90;;;;;;5053207;28;20643;-77
2023/10/01 04:17:25;;;;;;;13.93;7.17;;;13.00;99.90;;;;;;5052993;28;20199;-76
2023/10/01 04:20:00;;;;;;;14.57;6.60;;;13.00;99.90;;;;;;5053284;28;20171;-77
2023/10/01 04:22:29;;;;;;;17.03;7.60;;;13.00;99.90;;;;;;5053907;28;20190;-77
2023/10/01 04:25:14;;;;;;;16.07;7.73;;;13.00;99.90;;;;;;5052844;28;20180;-76
2023/10/01 04:27:45;;;;;;;17.00;7.70;;;12.90;99.90;;;;;;5053067;28;20641;-79
2023/10/01 04:30:12;;;;;;;14.27;7.13;;;12.90;99.90;;;;;;5052516;28;20212;-76
2023/10/01 04:32:39;;;;;;;15.67;7.70;;;12.90;99.90;;;;;;5052467;28;20229;-77
2023/10/01 04:35:17;;;;;;;13.43;7.00;;;12.90;99.90;;;;;;5052783;28;20191;-77
2023/10/01 04:37:44;;;;;;;13.03;7.40;;;12.90;99.90;;;;;;5052520;28;20663;-77
2023/10/01 04:43:01;;;;;;;19.10;7.83;;;12.90;99.90;;;;;;5053783;28;20213;-76
2023/10/01 04:45:36;;;;;;;14.00;7.40;;;12.80;99.90;;;;;;5052635;28;20156;-75
2023/10/01 04:48:10;;;;;;;13.80;7.80;;;12.80;99.90;;;;;;5052553;28;20256;-77
2023/10/01 04:50:37;;;;;;;17.57;8.10;;;12.80;99.90;;;;;;5035245;28;20523;-77
2023/10/01 04:53:07;;;;;;;15.53;8.77;;;12.80;99.90;;;;;;5056740;28;20168;-78
2023/10/01 04:55:41;;;;;;;15.87;7.53;;;12.70;99.90;;;;;;5057008;28;20166;-77
2023/10/01 04:58:14;;;;;;;15.03;8.10;;;12.70;99.90;;;;;;5062433;28;20197;-76
2023/10/01 05:00:47;;;;;;;15.90;8.10;;;12.70;99.90;;;;;;5049300;28;20608;-76
2023/10/01 05:03:16;;;;;;;14.13;7.47;;;12.80;99.90;;;;;;5039011;28;20194;-77
2023/10/01 05:05:44;;;;;;;16.73;8.13;;;12.70;99.90;;;;;;5056912;28;20172;-77
2023/10/01 05:08:13;;;;;;;15.57;7.50;;;12.60;99.90;;;;;;5056700;28;20172;-76
2023/10/01 05:10:52;;;;;;;12.83;8.07;;;12.60;99.90;;;;;;5056984;28;20706;-78
2023/10/01 05:13:24;;;;;;;18.97;7.43;;;12.50;99.90;;;;;;5040460;28;20168;-78
2023/10/01 05:15:56;;;;;;;14.27;7.77;;;12.50;99.90;;;;;;5039503;28;20207;-78
2023/10/01 05:18:22;;;;;;;14.77;7.37;;;12.50;99.90;;;;;;5056943;28;20275;-77
2023/10/01 05:20:48;;;;;;;15.07;7.77;;;12.50;99.90;;;;;;5056527;28;20172;-77
2023/10/01 05:23:17;;;;;;;16.93;7.57;;;12.40;99.90;;;;;;5040282;28;20194;-77
2023/10/01 05:25:45;;;;;;;14.13;6.97;;;12.40;99.90;;;;;;5059976;28;20178;-76
2023/10/01 05:28:31;;;;;;;17.27;7.43;;;12.40;99.90;;;;;;5071026;28;20166;-78
2023/10/01 05:30:58;;;;;;;18.00;7.67;;;12.40;99.90;;;;;;5061703;28;20255;-80
2023/10/01 05:33:25;;;;;;;13.10;7.13;;;12.40;99.90;;;;;;5056029;28;20174;-80
2023/10/01 05:35:57;;;;;;;20.43;8.60;;;12.40;99.90;;;;;;5055883;28;20233;-78
2023/10/01 05:38:26;;;;;;;12.60;7.37;;;12.40;99.90;;;;;;5055928;28;20628;-79
2023/10/01 05:40:54;;;;;;;14.70;7.47;;;12.50;99.90;;;;;;5055685;28;20253;-79
2023/10/01 05:43:23;;;;;;;14.00;7.40;;;12.60;99.90;;;;;;5037521;28;20183;-78
2023/10/01 05:45:52;;;;;;;17.80;7.90;;;12.70;99.90;;;;;;5055955;28;20527;-78
2023/10/01 05:48:23;;;;;;;13.90;7.07;;;12.80;99.90;;;;;;5055687;28;20255;-78
2023/10/01 05:50:53;;;;;;;14.60;7.60;;;12.80;99.90;;;;;;5055259;28;20156;-78
2023/10/01 05:53:20;;;;;;;14.80;7.97;;;12.80;99.90;;;;;;5055627;28;20160;-77
2023/10/01 05:55:46;;;;;;;14.77;7.40;;;12.80;99.90;;;;;;5037891;28;20198;-79
2023/10/01 05:58:16;;;;;;;16.63;7.83;;;12.90;99.90;;;;;;5058916;28;20180;-78
2023/10/01 06:01:05;;;;;;;15.70;7.40;;;13.00;99.90;;;;;;5060088;28;20162;-78
2023/10/01 06:03:39;;;;;;;15.37;7.90;;;13.10;99.90;;;;;;5015400;28;20236;-78
2023/10/01 06:06:08;;;;;;;14.50;7.73;;;13.10;99.90;;;;;;5015522;28;20193;-79
2023/10/01 06:08:45;;;;;;;13.37;7.37;;;13.10;99.90;;;;;;5015452;28;20211;-78
2023/10/01 06:11:18;;;;;;;13.30;7.63;;;13.10;99.90;;;;;;5015422;28;20214;-80
2023/10/01 06:13:51;;;;;;;16.70;8.23;;;13.10;99.90;;;;;;5015314;28;20248;-80
2023/10/01 06:16:23;;;;;;;15.40;7.80;;;13.30;99.90;;;;;;5015507;28;20228;-78
2023/10/01 06:18:59;;;;;;;15.57;8.10;;;13.40;99.90;;;;;;5015839;28;20185;-79
2023/10/01 06:21:32;;;;;;;15.03;7.73;;;13.60;99.90;;;;;;5014145;28;20173;-80
2023/10/01 06:24:04;;;;;;;14.83;7.37;;;13.60;99.90;;;;;;5013752;28;20169;-80
2023/10/01 06:26:36;;;;;;;14.60;7.93;;;13.70;99.90;;;;;;5015198;28;20621;-79
2023/10/01 06:29:07;;;;;;;14.83;7.80;;;13.70;99.90;;;;;;5015441;28;20162;-80
2023/10/01 06:31:48;;;;;;;13.70;8.03;;;13.70;99.90;;;;;;5016024;28;20655;-79
2023/10/01 06:34:15;;;;;;;17.20;7.97;;;13.90;99.90;;;;;;5022364;28;20165;-80
2023/10/01 06:36:42;;;;;;;14.83;8.33;;;13.80;99.90;;;;;;5022209;28;20363;-79
2023/10/01 06:39:19;;;;;;;16.73;8.50;;;13.90;99.90;;;;;;5022816;28;20178;-78
2023/10/01 06:41:45;;;;;;;13.50;7.67;;;14.10;99.90;;;;;;5022002;28;20171;-79
2023/10/01 06:44:14;;;;;;;13.10;7.40;;;14.20;99.90;;;;;;5023213;28;20514;-80
2023/10/01 06:46:42;;;;;;;14.47;7.77;;;14.20;99.90;;;;;;5022338;28;20182;-80
2023/10/01 06:49:11;;;;;;;14.53;8.00;;;14.30;99.90;;;;;;5030945;28;20233;-80
2023/10/01 06:51:43;;;;;;;14.60;7.60;;;14.50;99.90;;;;;;5036076;28;20207;-80
2023/10/01 06:54:10;;;;;;;13.37;7.67;;;14.60;99.90;;;;;;5023318;28;20165;-81
2023/10/01 06:56:44;;;;;;;14.57;7.13;;;14.60;99.90;;;;;;5033861;28;20212;-80
2023/10/01 06:59:17;;;;;;;13.77;7.50;;;14.70;99.90;;;;;;5052437;28;20551;-80
2023/10/01 07:01:47;;;;;;;13.40;7.70;;;14.80;99.90;;;;;;5055196;28;20231;-78
2023/10/01 07:04:15;;;;;;;14.60;7.13;;;15.00;99.90;;;;;;5067575;28;20187;-79
2023/10/01 07:06:44;;;;;;;11.67;7.47;;;15.10;99.90;;;;;;5062893;28;20184;-78
2023/10/01 07:11:57;;;;;;;12.97;7.30;;;15.40;99.90;;;;;;5061180;28;20168;-82
2023/10/01 07:17:14;;;;;;;14.30;7.80;;;15.60;99.90;;;;;;5076408;28;20221;-81
2023/10/01 07:19:59;;;;;;;13.83;7.87;;;15.80;99.90;;;;;;5062415;28;20224;-81
2023/10/01 07:22:26;;;;;;;12.63;7.30;;;15.80;99.90;;;;;;5054517;28;20512;-81
2023/10/01 07:24:53;;;;;;;13.80;7.27;;;15.90;99.90;;;;;;5056320;28;20172;-80
2023/10/01 07:27:19;;;;;;;11.60;7.30;;;16.00;99.90;;;;;;5054481;28;20742;-80
2023/10/01 07:29:45;;;;;;;11.00;6.40;;;16.00;99.90;;;;;;5053735;28;20183;-80
2023/10/01 07:32:12;;;;;;;11.80;6.67;;;16.00;99.90;;;;;;5053768;28;20265;-81
2023/10/01 07:34:48;;;;;;;11.67;6.20;;;16.10;99.90;;;;;;5053478;28;20209;-79
2023/10/01 07:37:23;;;;;;;9.13;5.67;;;16.10;99.90;;;;;;5054244;28;20597;-79
2023/10/01 07:40:08;;;;;;;7.63;5.93;;;16.10;99.90;;;;;;5052361;28;20175;-79
2023/10/01 07:42:54;;;;;;;9.63;5.40;;;16.20;99.90;;;;;;5054716;28;20234;-80
2023/10/01 07:45:21;;;;;;;9.97;5.50;;;16.20;99.90;;;;;;5054508;28;20202;-79
2023/10/01 07:47:51;;;;;;;9.90;5.53;;;16.20;99.90;;;;;;5054122;28;20182;-78
2023/10/01 07:50:18;;;;;;;8.73;5.60;;;16.30;99.90;;;;;;5054272;28;20156;-78
2023/10/01 07:52:44;;;;;;;6.43;4.87;;;16.40;99.90;;;;;;5054980;28;20199;-79
2023/10/01 07:55:29;;;;;;;9.87;6.00;;;16.40;99.90;;;;;;5054026;28;20657;-79
2023/10/01 08:00:44;;;;;;;7.83;5.43;;;16.60;99.90;;;;;;5045660;28;20646;-78
2023/10/01 08:05:48;;;;;;;7.77;5.63;;;16.60;99.90;;;;;;5073802;28;20155;-78
2023/10/01 08:08:15;;;;;;;9.57;5.63;;;16.70;99.90;;;;;;5074566;28;20179;-78
2023/10/01 08:10:43;;;;;;;9.07;5.43;;;16.70;99.90;;;;;;5086032;28;20167;-80
2023/10/01 08:13:23;;;;;;;9.00;5.40;;;16.80;99.90;;;;;;5091556;28;20202;-78
2023/10/01 08:15:59;;;;;;;11.27;6.40;;;16.70;99.90;;;;;;5073927;28;20565;-79
2023/10/01 08:18:35;;;;;;;10.50;5.87;;;16.70;99.90;;;;;;5073453;28;20193;-77
2023/10/01 08:21:15;;;;;;;6.53;4.83;;;16.70;99.90;;;;;;5055234;28;20684;-78
2023/10/01 08:23:54;;;;;;;7.77;5.37;;;16.70;99.90;;;;;;5075487;28;20159;-79
2023/10/01 08:29:07;;;;;;;10.23;5.50;;;16.70;99.90;;;;;;5079162;28;20185;-79
2023/10/01 08:34:22;;;;;;;11.53;6.50;;;16.90;99.90;;;;;;5080170;28;20156;-78
2023/10/01 08:36:55;;;;;;;7.53;5.40;;;16.90;99.90;;;;;;5078537;28;20198;-79
2023/10/01 08:39:36;;;;;;;8.90;5.47;;;17.00;99.90;;;;;;5062115;28;20869;-80
2023/10/01 08:42:08;;;;;;;8.80;5.90;;;17.10;99.90;;;;;;5090761;28;20164;-80
2023/10/01 08:45:02;;;;;;;9.67;5.97;;;17.10;99.90;;;;;;5058108;28;20183;-79
2023/10/01 08:47:31;;;;;;;8.37;6.03;;;17.20;99.90;;;;;;5055836;28;20231;-81
2023/10/01 08:50:26;;;;;;;9.23;5.90;;;17.20;99.90;;;;;;5073535;28;20179;-79
2023/10/01 08:53:01;;;;;;;10.03;6.47;;;17.30;99.90;;;;;;5082222;28;20197;-80
2023/10/01 09:00:56;;;;;;;13.33;6.90;;;17.40;99.90;;;;;;5074419;28;20170;-77
2023/10/01 09:03:34;;;;;;;9.40;6.60;;;17.40;99.90;;;;;;5073973;28;20170;-80
2023/10/01 09:06:03;;;;;;;11.10;7.33;;;16.90;99.90;;;;;;5076493;28;20184;-79
2023/10/01 09:08:32;;;;;;;13.53;6.90;;;17.40;99.90;;;;;;5092599;28;20246;-81
2023/10/01 09:11:02;;;;;;;10.63;6.77;;;17.50;99.90;;;;;;5057359;28;20176;-78
2023/10/01 09:13:30;;;;;;;9.30;6.53;;;17.50;99.90;;;;;;5002961;28;20171;-82
2023/10/01 09:16:10;;;;;;;11.27;6.87;;;17.60;99.90;;;;;;5073371;28;20194;-81
2023/10/01 09:19:03;;;;;;;12.43;7.63;;;17.70;99.90;;;;;;5073359;28;20171;-81
2023/10/01 09:21:38;;;;;;;10.80;7.37;;;17.70;99.90;;;;;;5074194;28;20162;-81
2023/10/01 09:27:21;;;;;;;12.57;7.73;;;17.80;99.90;;;;;;5038010;28;20194;-81
2023/10/01 09:29:57;;;;;;;14.43;7.43;;;17.90;99.90;;;;;;5053482;28;20635;-80
2023/10/01 09:32:52;;;;;;;10.57;6.97;;;17.90;99.90;;;;;;5054284;28;20159;-81
2023/10/01 09:35:38;;;;;;;10.60;6.77;;;17.90;99.90;;;;;;5068922;28;20182;-80
2023/10/01 09:38:10;;;;;;;11.03;6.73;;;17.90;99.90;;;;;;5076473;28;20693;-79
2023/10/01 09:40:38;;;;;;;12.63;7.47;;;18.00;99.90;;;;;;5058647;28;20186;-80
2023/10/01 09:43:04;;;;;;;10.87;6.97;;;18.00;99.90;;;;;;5058390;28;20179;-79
2023/10/01 09:45:37;;;;;;;10.87;7.70;;;17.90;99.90;;;;;;5076397;28;20178;-79
2023/10/01 09:48:11;;;;;;;11.47;7.50;;;17.90;99.90;;;;;;5076703;28;20171;-79
2023/10/01 09:50:42;;;;;;;8.40;6.80;;;18.00;99.90;;;;;;5058404;28;20199;-80
2023/10/01 09:53:20;;;;;;;13.37;7.73;;;18.10;99.90;;;;;;5058671;28;20198;-79
2023/10/01 09:55:55;;;;;;;13.07;7.97;;;18.00;99.90;;;;;;5078036;28;20284;-80
2023/10/01 09:58:27;;;;;;;12.77;7.90;;;18.00;99.90;;;;;;5080890;28;20159;-81
2023/10/01 10:01:02;;;;;;;11.37;7.03;;;18.00;99.90;;;;;;5076049;28;20171;-81
2023/10/01 10:03:36;;;;;;;10.23;6.83;;;18.00;99.90;;;;;;5055920;28;20195;-80
2023/10/01 10:06:11;;;;;;;13.93;7.20;;;18.00;99.90;;;;;;5067751;28;20155;-80
2023/10/01 10:08:39;;;;;;;10.07;6.77;;;18.00;99.90;;;;;;5061940;28;20155;-81
2023/10/01 10:11:13;;;;;;;12.67;7.80;;;18.10;99.90;;;;;;5056803;28;20183;-77
2023/10/01 10:13:46;;;;;;;11.53;7.40;;;18.20;99.90;;;;;;5057325;28;20159;-79
2023/10/01 10:16:35;;;;;;;14.80;7.50;;;18.20;99.90;;;;;;5056678;28;20260;-80
2023/10/01 10:19:26;;;;;;;13.27;6.90;;;18.20;99.90;;;;;;5073646;28;20164;-80
2023/10/01 10:24:36;;;;;;;12.83;7.37;;;18.40;99.90;;;;;;5055582;28;20164;-80
2023/10/01 10:27:09;;;;;;;31.97;22.00;;;18.60;99.90;;;;;;5055199;28;20719;-82
2023/10/01 10:29:47;;;;;;;19.13;13.43;;;18.60;99.90;;;;;;5056947;28;20160;-81
2023/10/01 10:32:16;;;;;;;10.83;7.73;;;18.70;99.90;;;;;;5056056;28;20175;-80
2023/10/01 10:35:04;;;;;;;11.33;7.00;;;18.80;99.90;;;;;;5037012;28;20172;-81
2023/10/01 10:37:32;;;;;;;12.43;7.40;;;18.80;99.90;;;;;;5037071;28;20235;-80
2023/10/01 10:40:12;;;;;;;12.47;7.10;;;18.80;99.90;;;;;;5038558;28;20226;-82
2023/10/01 10:43:04;;;;;;;13.20;7.03;;;18.70;99.90;;;;;;5041584;28;20171;-81
2023/10/01 10:45:43;;;;;;;10.07;6.73;;;18.70;99.90;;;;;;5038710;28;20184;-80
2023/10/01 10:48:21;;;;;;;11.30;7.43;;;18.70;99.90;;;;;;5054953;28;20156;-80
2023/10/01 10:50:49;;;;;;;12.83;7.50;;;18.80;99.90;;;;;;5055580;28;20156;-80
2023/10/01 10:53:23;;;;;;;11.63;7.13;;;18.80;99.90;;;;;;5037933;28;20206;-81
2023/10/01 10:55:55;;;;;;;9.27;6.70;;;18.90;99.90;;;;;;5059586;28;20175;-80
2023/10/01 10:58:24;;;;;;;8.23;6.57;;;18.90;99.90;;;;;;5065100;28;20270;-82
2023/10/01 11:00:52;;;;;;;11.27;7.57;;;19.10;99.90;;;;;;5074688;28;20671;-82
2023/10/01 11:03:40;;;;;;;10.83;7.23;;;19.20;99.90;;;;;;5058535;28;20182;-80
2023/10/01 11:07:01;;;;;;;11.40;7.80;;;19.20;99.90;;;;;;5038839;28;20163;-82
2023/10/01 11:09:30;;;;;;;10.83;7.00;;;19.10;99.90;;;;;;5054074;28;20183;-80
2023/10/01 11:12:08;;;;;;;12.60;6.83;;;19.10;99.90;;;;;;5054054;28;20298;-80
2023/10/01 11:14:35;;;;;;;10.90;6.93;;;19.10;99.90;;;;;;5036034;28;20183;-80
2023/10/01 11:17:01;;;;;;;8.10;6.50;;;19.10;99.90;;;;;;5053956;28;20200;-81
2023/10/01 11:19:27;;;;;;;11.73;6.80;;;19.20;99.90;;;;;;5036091;28;20188;-81
2023/10/01 11:22:00;;;;;;;10.90;6.57;;;19.30;99.90;;;;;;5053812;28;20255;-81
2023/10/01 11:24:30;;;;;;;10.60;7.07;;;19.30;99.90;;;;;;5036088;28;20172;-80
2023/10/01 11:27:18;;;;;;;12.13;7.30;;;19.40;99.90;;;;;;5054364;28;20236;-80
2023/10/01 11:29:59;;;;;;;9.53;6.77;;;19.40;99.90;;;;;;5053690;28;20232;-80
2023/10/01 11:35:41;;;;;;;8.50;6.67;;;19.40;99.90;;;;;;5058874;28;20182;-81
2023/10/01 11:38:10;;;;;;;11.43;7.30;;;19.60;99.90;;;;;;5065213;28;20192;-81
2023/10/01 11:43:27;;;;;;;11.30;7.57;;;19.70;99.90;;;;;;5062002;28;20182;-81
2023/10/01 11:46:23;;;;;;;14.07;7.40;;;19.60;99.90;;;;;;5040213;28;20203;-81
2023/10/01 11:49:00;;;;;;;10.33;6.80;;;19.60;99.90;;;;;;5053954;28;20175;-82
2023/10/01 11:54:43;;;;;;;9.43;7.07;;;19.70;99.90;;;;;;5057500;28;20186;-79
2023/10/01 11:57:19;;;;;;;13.63;7.70;;;19.80;99.90;;;;;;5068018;28;20231;-82
2023/10/01 11:59:46;;;;;;;11.00;7.77;;;19.80;99.90;;;;;;5057700;28;20163;-82
2023/10/01 12:02:20;;;;;;;10.93;7.37;;;19.70;99.90;;;;;;5054041;28;20581;-80
2023/10/01 12:04:58;;;;;;;12.33;7.67;;;19.70;99.90;;;;;;5053938;28;20210;-81
2023/10/01 12:07:43;;;;;;;12.23;7.90;;;19.80;99.90;;;;;;5035123;28;20171;-81
2023/10/01 12:12:55;;;;;;;11.63;8.00;;;19.90;99.90;;;;;;5014932;28;20249;-79
2023/10/01 12:15:54;;;;;;;11.77;7.60;;;19.90;99.90;;;;;;5055947;28;20706;-81
2023/10/01 12:18:15;;;;;;;17.97;12.30;;;19.90;99.90;;;;;;5066195;28;20226;-80
2023/10/01 12:20:51;;;;;;;48.40;35.37;;;20.00;99.90;;;;;;5060597;28;20176;-82
2023/10/01 12:23:22;;;;;;;12.90;8.87;;;20.00;99.90;;;;;;5057490;28;20210;-79
2023/10/01 12:28:28;;;;;;;14.00;9.53;;;20.10;99.90;;;;;;5054065;28;20164;-80
2023/10/01 12:30:58;;;;;;;12.77;7.63;;;20.20;99.90;;;;;;5054419;28;20155;-80
2023/10/01 12:33:43;;;;;;;11.33;7.87;;;20.20;99.90;;;;;;5054729;28;20156;-81
2023/10/01 12:44:27;;;;;;;11.27;7.03;;;20.20;99.90;;;;;;5053327;28;20195;-81
2023/10/01 12:47:06;;;;;;;10.47;7.03;;;20.20;99.90;;;;;;5057116;28;20160;-83
2023/10/01 12:49:34;;;;;;;12.03;7.53;;;20.20;99.90;;;;;;5053764;28;20172;-82
2023/10/01 12:52:05;;;;;;;11.30;8.10;;;20.20;99.90;;;;;;5052841;28;20243;-83
2023/10/01 12:54:36;;;;;;;11.50;8.30;;;20.20;99.90;;;;;;5075246;28;20161;-79
2023/10/01 12:57:02;;;;;;;10.90;7.60;;;20.10;99.90;;;;;;5063667;28;20221;-80
2023/10/01 12:59:39;;;;;;;10.60;7.33;;;20.10;99.90;;;;;;5056017;28;20191;-83
2023/10/01 13:07:43;;;;;;;9.77;6.40;;;20.20;99.90;;;;;;5015214;28;20184;-80
2023/10/01 13:10:10;;;;;;;12.03;7.03;;;20.20;99.90;;;;;;5014572;28;20201;-81
2023/10/01 13:12:39;;;;;;;10.73;6.87;;;20.20;99.90;;;;;;5017177;28;20525;-80
2023/10/01 13:15:15;;;;;;;11.83;6.90;;;20.20;99.90;;;;;;5020150;28;20555;-81
2023/10/01 13:17:45;;;;;;;69.28;33.55;;;20.30;99.90;;;;;;5016640;28;20939;-80
2023/10/01 13:20:19;;;;;;;58.77;23.43;;;20.20;99.90;;;;;;5018651;28;20177;-81
2023/10/01 13:23:06;;;;;;;41.13;18.27;;;20.20;99.90;;;;;;5028580;28;20192;-81
2023/10/01 13:25:33;;;;;;;64.70;24.10;;;20.20;99.90;;;;;;5019295;28;20614;-82
2023/10/01 13:28:02;;;;;;;46.87;20.70;;;20.20;99.90;;;;;;5017492;28;20181;-80
2023/10/01 13:33:23;;;;;;;33.87;13.23;;;20.40;99.90;;;;;;5031464;28;20176;-79
2023/10/01 13:35:56;;;;;;;50.60;23.83;;;20.40;99.90;;;;;;5024158;28;20169;-82
2023/10/01 14:11:08;;;;;;;18.33;9.37;;;20.60;99.90;;;;;;5075718;28;20179;-84
2023/10/01 14:13:41;;;;;;;13.97;8.37;;;20.60;99.90;;;;;;5064941;28;20176;-82
2023/10/01 14:16:28;;;;;;;17.37;9.33;;;20.70;99.90;;;;;;5041070;28;20208;-82
2023/10/01 14:18:53;;;;;;;14.00;7.37;;;20.70;99.90;;;;;;5039959;28;20195;-82
2023/10/01 14:21:23;;;;;;;12.97;7.70;;;20.70;99.90;;;;;;5056988;28;20176;-81
2023/10/01 14:23:52;;;;;;;12.63;7.43;;;20.60;99.90;;;;;;5056780;28;20183;-82
2023/10/01 14:26:26;;;;;;;14.03;7.07;;;20.60;99.90;;;;;;5038813;28;20186;-83
2023/10/01 14:28:55;;;;;;;19.37;10.37;;;20.60;99.90;;;;;;5057837;28;20156;-81
2023/10/01 14:34:07;;;;;;;11.23;6.57;;;20.50;99.90;;;;;;5060058;28;20226;-81
2023/10/01 14:36:38;;;;;;;17.30;8.30;;;20.50;99.90;;;;;;5055407;28;20234;-80
2023/10/01 14:39:05;;;;;;;9.63;6.90;;;20.50;99.90;;;;;;5055799;28;20179;-80
2023/10/01 14:41:31;;;;;;;12.10;6.83;;;20.50;99.90;;;;;;5055986;28;20199;-80
2023/10/01 14:43:57;;;;;;;12.03;7.50;;;20.50;99.90;;;;;;5072004;28;20171;-83
2023/10/01 14:46:30;;;;;;;17.20;8.47;;;20.40;99.90;;;;;;5059158;28;20191;-78
2023/10/01 14:49:04;;;;;;;12.50;6.90;;;20.40;99.90;;;;;;5046626;28;20690;-81
2023/10/01 14:51:32;;;;;;;12.67;7.80;;;20.40;99.90;;;;;;5040425;28;20263;-81
2023/10/01 14:53:58;;;;;;;16.17;8.93;;;20.40;99.90;;;;;;5056457;28;20184;-80
2023/10/01 14:56:34;;;;;;;14.60;7.87;;;20.30;99.90;;;;;;5038299;28;20745;-80
2023/10/01 14:59:06;;;;;;;12.30;7.53;;;20.30;99.90;;;;;;5062816;28;20178;-80
2023/10/01 15:01:37;;;;;;;15.97;7.83;;;20.30;99.90;;;;;;5064806;28;20579;-82
2023/10/01 15:04:20;;;;;;;14.43;8.10;;;20.30;99.90;;;;;;5070283;28;20192;-80